TimeCST,TemperatureF,Dew PointF,Humidity,Sea Level PressureIn,VisibilityMPH,Wind Direction,Wind SpeedMPH,Gust SpeedMPH,PrecipitationIn,Events,Conditions,WindDirDegrees,DateUTC
12:48 AM,17.6,12.2,79,29.99,1.8,Calm,Calm,-,0.00,Snow,Light Snow,0,2013-02-04 06:48:00
12:53 AM,18.0,12.9,81,30.03,2.0,Calm,Calm,-,0.00,Snow,Light Snow,0,2013-02-04 06:53:00
1:07 AM,17.6,12.2,79,29.99,3.0,Calm,Calm,-,0.00,Snow,Light Snow,0,2013-02-04 07:07:00
1:28 AM,17.6,12.2,79,29.98,2.0,Calm,Calm,-,0.00,Snow,Light Snow,0,2013-02-04 07:28:00
1:36 AM,17.6,12.2,79,29.98,1.8,Calm,Calm,-,0.00,Snow,Light Snow,0,2013-02-04 07:36:00
1:42 AM,17.6,12.2,79,29.97,2.0,Calm,Calm,-,0.00,Snow,Light Snow,0,2013-02-04 07:42:00
1:53 AM,18.0,12.9,81,30.01,1.5,Calm,Calm,-,0.01,Snow,Light Snow,0,2013-02-04 07:53:00
2:05 AM,17.6,14.0,86,29.96,2.0,East,4.6,-,0.00,Snow,Light Snow,80,2013-02-04 08:05:00
2:27 AM,17.6,12.2,79,29.96,1.2,East,5.8,-,0.00,Snow,Light Snow,80,2013-02-04 08:27:00
2:53 AM,18.0,12.9,81,29.98,1.5,East,5.8,-,0.00,Snow,Light Snow,90,2013-02-04 08:53:00
4:53 AM,17.1,12.0,81,29.97,3.0,North,4.6,-,0.01,Snow,Light Snow,10,2013-02-04 10:53:00
5:53 AM,17.1,12.9,84,29.97,6.0,North,4.6,-,0.00,Snow,Light Snow,360,2013-02-04 11:53:00
6:53 AM,18.0,12.9,81,29.95,7.0,NNE,5.8,-,0.01,,Overcast,20,2013-02-04 12:53:00
7:45 AM,19.4,14.0,80,29.91,2.0,NNE,8.1,-,0.00,Snow,Light Snow,20,2013-02-04 13:45:00
7:53 AM,19.0,15.1,85,29.95,2.0,NNE,8.1,-,0.00,Snow,Light Snow,20,2013-02-04 13:53:00
8:53 AM,19.9,16.0,85,29.94,2.0,NNE,6.9,-,0.01,Snow,Light Snow,20,2013-02-04 14:53:00
9:43 AM,21.2,15.8,80,29.90,2.0,North,8.1,-,0.00,Snow,Light Snow,360,2013-02-04 15:43:00
9:53 AM,21.0,17.1,85,29.94,2.0,North,5.8,-,0.00,Snow,Light Snow,10,2013-02-04 15:53:00
10:00 AM,21.2,17.6,86,29.89,1.8,North,6.9,-,0.00,Snow,Light Snow,360,2013-02-04 16:00:00
10:53 AM,25.0,19.0,78,29.93,2.5,NNE,9.2,-,0.00,,Haze,30,2013-02-04 16:53:00
11:53 AM,25.0,19.0,78,29.93,2.5,NNE,12.7,-,0.01,Snow,Light Snow,30,2013-02-04 17:53:00
12:53 PM,24.1,17.1,75,29.92,4.0,North,12.7,-,0.00,,Haze,360,2013-02-04 18:53:00
1:53 PM,21.9,16.0,78,29.94,5.0,North,12.7,-,N/A,,Haze,360,2013-02-04 19:53:00
2:34 PM,21.2,15.8,80,29.90,8.0,North,9.2,-,N/A,,Overcast,360,2013-02-04 20:34:00
2:53 PM,21.0,15.1,78,29.93,4.0,North,10.4,-,N/A,,Haze,10,2013-02-04 20:53:00
3:53 PM,21.0,14.0,74,29.93,7.0,NNW,11.5,-,0.00,Snow,Light Snow,340,2013-02-04 21:53:00
4:53 PM,19.9,12.9,74,29.94,9.0,NNW,10.4,-,0.00,,Overcast,340,2013-02-04 22:53:00
5:53 PM,19.0,12.0,74,29.97,9.0,NNW,8.1,-,N/A,,Overcast,330,2013-02-04 23:53:00
6:53 PM,17.1,9.0,71,29.97,10.0,NW,4.6,-,N/A,,Mostly Cloudy,320,2013-02-05 00:53:00
7:53 PM,15.1,7.0,70,29.99,10.0,NW,6.9,-,N/A,,Partly Cloudy,320,2013-02-05 01:53:00
8:53 PM,12.9,1.9,62,30.01,10.0,NNW,6.9,-,N/A,,Partly Cloudy,330,2013-02-05 02:53:00
9:53 PM,12.0,-0.0,59,30.00,10.0,NW,3.5,-,N/A,,Clear,320,2013-02-05 03:53:00
10:53 PM,7.0,-0.9,70,29.99,10.0,Calm,Calm,-,N/A,,Clear,0,2013-02-05 04:53:00
11:53 PM,8.1,-0.9,67,29.98,10.0,West,4.6,-,N/A,,Clear,270,2013-02-05 05:53:00